sensor_id;sensor_type;location;lat;lon;timestamp;P1;durP1;ratioP1;P2;durP2;ratioP2
14056;SDS011;7103;54.300;10.180;2022-07-06T00:01:53;0.10;;;0.10;;
14056;SDS011;7103;54.300;10.180;2022-07-06T00:04:23;0.10;;;0.10;;
14056;SDS011;7103;54.300;10.180;2022-07-06T00:06:50;0.10;;;0.10;;
14056;SDS011;7103;54.300;10.180;2022-07-06T00:09:17;0.10;;;0.10;;
14056;SDS011;7103;54.300;10.180;2022-07-06T00:11:44;0.10;;;0.10;;
14056;SDS011;7103;54.300;10.180;2022-07-06T00:14:11;0.10;;;0.10;;
14056;SDS011;7103;54.300;10.180;2022-07-06T00:16:38;0.10;;;0.10;;
14056;SDS011;7103;54.300;10.180;2022-07-06T00:19:05;0.10;;;0.10;;
14056;SDS011;7103;54.300;10.180;2022-07-06T00:21:32;0.10;;;0.10;;
14056;SDS011;7103;54.300;10.180;2022-07-06T00:23:59;0.10;;;0.10;;
14056;SDS011;7103;54.300;10.180;2022-07-06T00:26:26;0.10;;;0.10;;
14056;SDS011;7103;54.300;10.180;2022-07-06T00:28:53;0.10;;;0.10;;
14056;SDS011;7103;54.300;10.180;2022-07-06T00:31:20;0.10;;;0.10;;
14056;SDS011;7103;54.300;10.180;2022-07-06T00:33:49;0.10;;;0.10;;
14056;SDS011;7103;54.300;10.180;2022-07-06T00:36:16;0.10;;;0.10;;
14056;SDS011;7103;54.300;10.180;2022-07-06T00:38:46;0.10;;;0.10;;
14056;SDS011;7103;54.300;10.180;2022-07-06T00:41:13;0.10;;;0.10;;
14056;SDS011;7103;54.300;10.180;2022-07-06T00:44:05;0.10;;;0.10;;
14056;SDS011;7103;54.300;10.180;2022-07-06T00:46:33;0.10;;;0.10;;
14056;SDS011;7103;54.300;10.180;2022-07-06T00:49:02;0.10;;;0.10;;
14056;SDS011;7103;54.300;10.180;2022-07-06T00:51:30;0.10;;;0.10;;
14056;SDS011;7103;54.300;10.180;2022-07-06T00:53:59;0.10;;;0.10;;
14056;SDS011;7103;54.300;10.180;2022-07-06T00:56:29;0.10;;;0.10;;
14056;SDS011;7103;54.300;10.180;2022-07-06T00:58:59;0.10;;;0.10;;
14056;SDS011;7103;54.300;10.180;2022-07-06T01:01:26;0.10;;;0.10;;
14056;SDS011;7103;54.300;10.180;2022-07-06T01:03:54;0.10;;;0.10;;
14056;SDS011;7103;54.300;10.180;2022-07-06T01:06:21;0.10;;;0.10;;
14056;SDS011;7103;54.300;10.180;2022-07-06T01:08:48;0.10;;;0.10;;
14056;SDS011;7103;54.300;10.180;2022-07-06T01:11:16;0.10;;;0.10;;
14056;SDS011;7103;54.300;10.180;2022-07-06T01:13:44;0.10;;;0.10;;
14056;SDS011;7103;54.300;10.180;2022-07-06T01:16:12;0.10;;;0.10;;
14056;SDS011;7103;54.300;10.180;2022-07-06T01:18:39;0.10;;;0.10;;
14056;SDS011;7103;54.300;10.180;2022-07-06T01:21:08;0.10;;;0.10;;
14056;SDS011;7103;54.300;10.180;2022-07-06T01:23:39;0.00;;;0.00;;
14056;SDS011;7103;54.300;10.180;2022-07-06T01:26:09;0.10;;;0.10;;
14056;SDS011;7103;54.300;10.180;2022-07-06T01:28:36;0.10;;;0.10;;
14056;SDS011;7103;54.300;10.180;2022-07-06T01:31:04;0.00;;;0.00;;
14056;SDS011;7103;54.300;10.180;2022-07-06T01:33:31;0.10;;;0.10;;
14056;SDS011;7103;54.300;10.180;2022-07-06T01:35:58;0.10;;;0.10;;
14056;SDS011;7103;54.300;10.180;2022-07-06T01:38:25;0.00;;;0.00;;
14056;SDS011;7103;54.300;10.180;2022-07-06T01:40:52;0.10;;;0.10;;
14056;SDS011;7103;54.300;10.180;2022-07-06T01:43:19;0.10;;;0.10;;
14056;SDS011;7103;54.300;10.180;2022-07-06T01:45:45;0.10;;;0.10;;
14056;SDS011;7103;54.300;10.180;2022-07-06T01:48:12;0.10;;;0.10;;
14056;SDS011;7103;54.300;10.180;2022-07-06T01:50:39;0.00;;;0.00;;
14056;SDS011;7103;54.300;10.180;2022-07-06T01:53:06;0.10;;;0.10;;
14056;SDS011;7103;54.300;10.180;2022-07-06T01:55:33;0.00;;;0.00;;
14056;SDS011;7103;54.300;10.180;2022-07-06T01:58:00;0.10;;;0.10;;
14056;SDS011;7103;54.300;10.180;2022-07-06T02:00:27;0.10;;;0.10;;
14056;SDS011;7103;54.300;10.180;2022-07-06T02:02:54;0.10;;;0.10;;
14056;SDS011;7103;54.300;10.180;2022-07-06T02:05:20;0.00;;;0.00;;
14056;SDS011;7103;54.300;10.180;2022-07-06T02:07:47;0.00;;;0.00;;
14056;SDS011;7103;54.300;10.180;2022-07-06T02:10:14;0.10;;;0.10;;
14056;SDS011;7103;54.300;10.180;2022-07-06T02:12:41;0.10;;;0.10;;
14056;SDS011;7103;54.300;10.180;2022-07-06T02:15:08;0.10;;;0.10;;
14056;SDS011;7103;54.300;10.180;2022-07-06T02:17:35;0.10;;;0.10;;
14056;SDS011;7103;54.300;10.180;2022-07-06T02:20:03;0.10;;;0.10;;
14056;SDS011;7103;54.300;10.180;2022-07-06T02:22:31;0.10;;;0.10;;
14056;SDS011;7103;54.300;10.180;2022-07-06T02:24:58;0.10;;;0.10;;
14056;SDS011;7103;54.300;10.180;2022-07-06T02:27:25;0.10;;;0.10;;
14056;SDS011;7103;54.300;10.180;2022-07-06T02:29:52;0.10;;;0.10;;
14056;SDS011;7103;54.300;10.180;2022-07-06T02:32:18;0.00;;;0.00;;
14056;SDS011;7103;54.300;10.180;2022-07-06T02:34:45;0.10;;;0.10;;
14056;SDS011;7103;54.300;10.180;2022-07-06T02:37:12;0.10;;;0.10;;
14056;SDS011;7103;54.300;10.180;2022-07-06T02:39:39;0.10;;;0.10;;
14056;SDS011;7103;54.300;10.180;2022-07-06T02:42:06;0.10;;;0.10;;
14056;SDS011;7103;54.300;10.180;2022-07-06T02:44:33;0.10;;;0.10;;
14056;SDS011;7103;54.300;10.180;2022-07-06T02:47:00;0.10;;;0.10;;
14056;SDS011;7103;54.300;10.180;2022-07-06T02:49:27;0.10;;;0.10;;
14056;SDS011;7103;54.300;10.180;2022-07-06T02:51:53;0.10;;;0.10;;
14056;SDS011;7103;54.300;10.180;2022-07-06T02:54:20;0.10;;;0.10;;
14056;SDS011;7103;54.300;10.180;2022-07-06T02:56:47;0.07;;;0.07;;
14056;SDS011;7103;54.300;10.180;2022-07-06T02:59:19;0.10;;;0.10;;
14056;SDS011;7103;54.300;10.180;2022-07-06T03:01:46;0.00;;;0.00;;
14056;SDS011;7103;54.300;10.180;2022-07-06T03:04:13;0.10;;;0.10;;
14056;SDS011;7103;54.300;10.180;2022-07-06T03:06:40;0.07;;;0.07;;
14056;SDS011;7103;54.300;10.180;2022-07-06T03:09:07;0.00;;;0.00;;
14056;SDS011;7103;54.300;10.180;2022-07-06T03:11:34;0.00;;;0.00;;
14056;SDS011;7103;54.300;10.180;2022-07-06T03:14:05;0.00;;;0.00;;
14056;SDS011;7103;54.300;10.180;2022-07-06T03:16:32;0.00;;;0.00;;
14056;SDS011;7103;54.300;10.180;2022-07-06T03:18:59;0.10;;;0.10;;
14056;SDS011;7103;54.300;10.180;2022-07-06T03:21:26;0.00;;;0.00;;
14056;SDS011;7103;54.300;10.180;2022-07-06T03:23:53;0.10;;;0.10;;
14056;SDS011;7103;54.300;10.180;2022-07-06T03:26:20;0.00;;;0.00;;
14056;SDS011;7103;54.300;10.180;2022-07-06T03:28:47;0.00;;;0.00;;
14056;SDS011;7103;54.300;10.180;2022-07-06T03:31:14;0.00;;;0.00;;
14056;SDS011;7103;54.300;10.180;2022-07-06T03:33:41;0.00;;;0.00;;
14056;SDS011;7103;54.300;10.180;2022-07-06T03:36:08;0.10;;;0.10;;
14056;SDS011;7103;54.300;10.180;2022-07-06T03:38:35;0.10;;;0.10;;
14056;SDS011;7103;54.300;10.180;2022-07-06T03:41:02;0.00;;;0.00;;
14056;SDS011;7103;54.300;10.180;2022-07-06T03:43:29;0.00;;;0.00;;
14056;SDS011;7103;54.300;10.180;2022-07-06T03:45:56;0.00;;;0.00;;
14056;SDS011;7103;54.300;10.180;2022-07-06T03:48:23;0.10;;;0.10;;
14056;SDS011;7103;54.300;10.180;2022-07-06T03:50:51;0.10;;;0.10;;
14056;SDS011;7103;54.300;10.180;2022-07-06T03:53:18;0.10;;;0.10;;
14056;SDS011;7103;54.300;10.180;2022-07-06T03:55:45;0.10;;;0.10;;
14056;SDS011;7103;54.300;10.180;2022-07-06T03:58:32;0.10;;;0.10;;
14056;SDS011;7103;54.300;10.180;2022-07-06T04:01:00;0.00;;;0.00;;
14056;SDS011;7103;54.300;10.180;2022-07-06T04:03:27;0.10;;;0.10;;
14056;SDS011;7103;54.300;10.180;2022-07-06T04:05:59;0.00;;;0.00;;
14056;SDS011;7103;54.300;10.180;2022-07-06T04:08:26;0.10;;;0.10;;
14056;SDS011;7103;54.300;10.180;2022-07-06T04:10:53;0.00;;;0.00;;
14056;SDS011;7103;54.300;10.180;2022-07-06T04:13:21;0.10;;;0.10;;
14056;SDS011;7103;54.300;10.180;2022-07-06T04:15:48;0.07;;;0.07;;
14056;SDS011;7103;54.300;10.180;2022-07-06T04:18:14;0.00;;;0.00;;
14056;SDS011;7103;54.300;10.180;2022-07-06T04:20:41;0.00;;;0.00;;
14056;SDS011;7103;54.300;10.180;2022-07-06T04:23:08;0.10;;;0.10;;
14056;SDS011;7103;54.300;10.180;2022-07-06T04:25:35;0.10;;;0.10;;
14056;SDS011;7103;54.300;10.180;2022-07-06T04:28:02;0.10;;;0.10;;
14056;SDS011;7103;54.300;10.180;2022-07-06T04:30:30;0.10;;;0.10;;
14056;SDS011;7103;54.300;10.180;2022-07-06T04:32:57;0.10;;;0.10;;
14056;SDS011;7103;54.300;10.180;2022-07-06T04:35:24;0.03;;;0.03;;
14056;SDS011;7103;54.300;10.180;2022-07-06T04:37:51;0.00;;;0.00;;
14056;SDS011;7103;54.300;10.180;2022-07-06T04:40:19;0.00;;;0.00;;
14056;SDS011;7103;54.300;10.180;2022-07-06T04:42:46;0.00;;;0.00;;
14056;SDS011;7103;54.300;10.180;2022-07-06T04:45:13;0.10;;;0.10;;
14056;SDS011;7103;54.300;10.180;2022-07-06T04:47:40;0.10;;;0.10;;
14056;SDS011;7103;54.300;10.180;2022-07-06T04:50:10;0.00;;;0.00;;
14056;SDS011;7103;54.300;10.180;2022-07-06T04:52:38;0.00;;;0.00;;
14056;SDS011;7103;54.300;10.180;2022-07-06T04:55:05;0.10;;;0.10;;
14056;SDS011;7103;54.300;10.180;2022-07-06T04:57:34;0.10;;;0.10;;
14056;SDS011;7103;54.300;10.180;2022-07-06T05:00:03;0.10;;;0.10;;
14056;SDS011;7103;54.300;10.180;2022-07-06T05:02:30;0.10;;;0.10;;
14056;SDS011;7103;54.300;10.180;2022-07-06T05:04:58;0.10;;;0.10;;
14056;SDS011;7103;54.300;10.180;2022-07-06T05:07:25;0.10;;;0.10;;
14056;SDS011;7103;54.300;10.180;2022-07-06T05:09:57;0.10;;;0.10;;
14056;SDS011;7103;54.300;10.180;2022-07-06T05:12:24;0.00;;;0.00;;
14056;SDS011;7103;54.300;10.180;2022-07-06T05:14:51;0.10;;;0.10;;
14056;SDS011;7103;54.300;10.180;2022-07-06T05:17:19;0.00;;;0.00;;
14056;SDS011;7103;54.300;10.180;2022-07-06T05:19:54;0.10;;;0.10;;
14056;SDS011;7103;54.300;10.180;2022-07-06T05:22:21;0.10;;;0.10;;
14056;SDS011;7103;54.300;10.180;2022-07-06T05:24:49;0.10;;;0.10;;
14056;SDS011;7103;54.300;10.180;2022-07-06T05:27:16;0.10;;;0.10;;
14056;SDS011;7103;54.300;10.180;2022-07-06T05:29:43;0.10;;;0.10;;
14056;SDS011;7103;54.300;10.180;2022-07-06T05:32:11;0.10;;;0.10;;
14056;SDS011;7103;54.300;10.180;2022-07-06T05:34:38;0.10;;;0.10;;
14056;SDS011;7103;54.300;10.180;2022-07-06T05:37:06;0.10;;;0.10;;
14056;SDS011;7103;54.300;10.180;2022-07-06T05:39:33;0.10;;;0.10;;
14056;SDS011;7103;54.300;10.180;2022-07-06T05:42:01;0.10;;;0.10;;
14056;SDS011;7103;54.300;10.180;2022-07-06T05:44:28;0.10;;;0.10;;
14056;SDS011;7103;54.300;10.180;2022-07-06T05:46:55;0.10;;;0.10;;
14056;SDS011;7103;54.300;10.180;2022-07-06T05:49:42;0.00;;;0.00;;
14056;SDS011;7103;54.300;10.180;2022-07-06T05:52:29;0.10;;;0.10;;
14056;SDS011;7103;54.300;10.180;2022-07-06T05:54:56;0.10;;;0.10;;
14056;SDS011;7103;54.300;10.180;2022-07-06T05:57:23;0.10;;;0.10;;
14056;SDS011;7103;54.300;10.180;2022-07-06T05:59:50;0.10;;;0.10;;
14056;SDS011;7103;54.300;10.180;2022-07-06T06:02:18;0.10;;;0.10;;
14056;SDS011;7103;54.300;10.180;2022-07-06T06:04:45;0.10;;;0.10;;
14056;SDS011;7103;54.300;10.180;2022-07-06T06:07:12;0.10;;;0.10;;
14056;SDS011;7103;54.300;10.180;2022-07-06T06:09:39;0.20;;;0.20;;
14056;SDS011;7103;54.300;10.180;2022-07-06T06:12:07;0.10;;;0.10;;
14056;SDS011;7103;54.300;10.180;2022-07-06T06:14:34;0.20;;;0.20;;
14056;SDS011;7103;54.300;10.180;2022-07-06T06:17:01;0.10;;;0.10;;
14056;SDS011;7103;54.300;10.180;2022-07-06T06:19:35;0.10;;;0.10;;
14056;SDS011;7103;54.300;10.180;2022-07-06T06:22:03;0.10;;;0.10;;
14056;SDS011;7103;54.300;10.180;2022-07-06T06:24:30;0.10;;;0.10;;
14056;SDS011;7103;54.300;10.180;2022-07-06T06:26:58;0.10;;;0.10;;
14056;SDS011;7103;54.300;10.180;2022-07-06T06:29:25;0.20;;;0.20;;
14056;SDS011;7103;54.300;10.180;2022-07-06T06:31:53;0.20;;;0.20;;
14056;SDS011;7103;54.300;10.180;2022-07-06T06:34:20;0.20;;;0.20;;
14056;SDS011;7103;54.300;10.180;2022-07-06T06:36:47;0.10;;;0.10;;
14056;SDS011;7103;54.300;10.180;2022-07-06T06:39:15;0.20;;;0.20;;
14056;SDS011;7103;54.300;10.180;2022-07-06T06:41:42;0.10;;;0.10;;
14056;SDS011;7103;54.300;10.180;2022-07-06T06:44:09;0.10;;;0.10;;
14056;SDS011;7103;54.300;10.180;2022-07-06T06:46:36;0.10;;;0.10;;
14056;SDS011;7103;54.300;10.180;2022-07-06T06:49:04;0.20;;;0.20;;
14056;SDS011;7103;54.300;10.180;2022-07-06T06:51:32;0.10;;;0.10;;
14056;SDS011;7103;54.300;10.180;2022-07-06T06:53:59;0.10;;;0.10;;
14056;SDS011;7103;54.300;10.180;2022-07-06T06:56:26;0.20;;;0.20;;
14056;SDS011;7103;54.300;10.180;2022-07-06T06:58:54;0.10;;;0.10;;
14056;SDS011;7103;54.300;10.180;2022-07-06T07:01:41;0.20;;;0.20;;
14056;SDS011;7103;54.300;10.180;2022-07-06T07:04:08;0.20;;;0.20;;
14056;SDS011;7103;54.300;10.180;2022-07-06T07:06:36;0.10;;;0.10;;
14056;SDS011;7103;54.300;10.180;2022-07-06T07:09:03;0.10;;;0.10;;
14056;SDS011;7103;54.300;10.180;2022-07-06T07:11:31;0.20;;;0.20;;
14056;SDS011;7103;54.300;10.180;2022-07-06T07:13:58;0.10;;;0.10;;
14056;SDS011;7103;54.300;10.180;2022-07-06T07:16:26;0.20;;;0.20;;
14056;SDS011;7103;54.300;10.180;2022-07-06T07:18:54;0.10;;;0.10;;
14056;SDS011;7103;54.300;10.180;2022-07-06T07:21:21;0.10;;;0.10;;
14056;SDS011;7103;54.300;10.180;2022-07-06T07:23:49;0.20;;;0.20;;
14056;SDS011;7103;54.300;10.180;2022-07-06T07:26:16;0.10;;;0.10;;
14056;SDS011;7103;54.300;10.180;2022-07-06T07:28:44;0.20;;;0.20;;
14056;SDS011;7103;54.300;10.180;2022-07-06T07:31:13;0.20;;;0.20;;
14056;SDS011;7103;54.300;10.180;2022-07-06T07:33:40;0.10;;;0.10;;
14056;SDS011;7103;54.300;10.180;2022-07-06T07:36:07;0.10;;;0.10;;
14056;SDS011;7103;54.300;10.180;2022-07-06T07:38:34;0.10;;;0.10;;
14056;SDS011;7103;54.300;10.180;2022-07-06T07:41:02;0.10;;;0.10;;
14056;SDS011;7103;54.300;10.180;2022-07-06T07:43:30;0.20;;;0.20;;
14056;SDS011;7103;54.300;10.180;2022-07-06T07:45:57;0.17;;;0.17;;
14056;SDS011;7103;54.300;10.180;2022-07-06T07:48:25;0.10;;;0.10;;
14056;SDS011;7103;54.300;10.180;2022-07-06T07:50:52;0.10;;;0.10;;
14056;SDS011;7103;54.300;10.180;2022-07-06T07:53:20;0.10;;;0.10;;
14056;SDS011;7103;54.300;10.180;2022-07-06T07:55:47;0.20;;;0.20;;
14056;SDS011;7103;54.300;10.180;2022-07-06T07:58:14;0.20;;;0.20;;
14056;SDS011;7103;54.300;10.180;2022-07-06T08:00:41;0.10;;;0.10;;
14056;SDS011;7103;54.300;10.180;2022-07-06T08:03:09;0.20;;;0.20;;
14056;SDS011;7103;54.300;10.180;2022-07-06T08:05:36;0.20;;;0.20;;
14056;SDS011;7103;54.300;10.180;2022-07-06T08:08:04;0.20;;;0.20;;
14056;SDS011;7103;54.300;10.180;2022-07-06T08:10:32;0.20;;;0.20;;
14056;SDS011;7103;54.300;10.180;2022-07-06T08:13:17;0.20;;;0.20;;
14056;SDS011;7103;54.300;10.180;2022-07-06T08:15:44;0.20;;;0.20;;
14056;SDS011;7103;54.300;10.180;2022-07-06T08:18:12;0.13;;;0.13;;
14056;SDS011;7103;54.300;10.180;2022-07-06T08:20:39;0.20;;;0.20;;
14056;SDS011;7103;54.300;10.180;2022-07-06T08:23:23;0.20;;;0.20;;
14056;SDS011;7103;54.300;10.180;2022-07-06T08:25:51;0.20;;;0.20;;
14056;SDS011;7103;54.300;10.180;2022-07-06T08:28:19;0.20;;;0.20;;
14056;SDS011;7103;54.300;10.180;2022-07-06T08:30:46;0.20;;;0.20;;
14056;SDS011;7103;54.300;10.180;2022-07-06T08:33:14;0.20;;;0.20;;
14056;SDS011;7103;54.300;10.180;2022-07-06T08:35:41;0.20;;;0.20;;
14056;SDS011;7103;54.300;10.180;2022-07-06T08:38:08;0.20;;;0.20;;
14056;SDS011;7103;54.300;10.180;2022-07-06T08:40:35;0.10;;;0.10;;
14056;SDS011;7103;54.300;10.180;2022-07-06T08:43:05;0.10;;;0.10;;
14056;SDS011;7103;54.300;10.180;2022-07-06T08:45:34;0.10;;;0.10;;
14056;SDS011;7103;54.300;10.180;2022-07-06T08:48:03;0.10;;;0.10;;
14056;SDS011;7103;54.300;10.180;2022-07-06T08:50:32;0.10;;;0.10;;
14056;SDS011;7103;54.300;10.180;2022-07-06T08:52:59;0.20;;;0.20;;
14056;SDS011;7103;54.300;10.180;2022-07-06T08:55:27;0.10;;;0.10;;
14056;SDS011;7103;54.300;10.180;2022-07-06T08:57:54;0.10;;;0.10;;
14056;SDS011;7103;54.300;10.180;2022-07-06T09:00:23;0.10;;;0.10;;
14056;SDS011;7103;54.300;10.180;2022-07-06T09:02:51;0.17;;;0.17;;
14056;SDS011;7103;54.300;10.180;2022-07-06T09:05:23;0.10;;;0.10;;
14056;SDS011;7103;54.300;10.180;2022-07-06T09:07:51;0.10;;;0.10;;
14056;SDS011;7103;54.300;10.180;2022-07-06T09:10:26;0.10;;;0.10;;
14056;SDS011;7103;54.300;10.180;2022-07-06T09:13:01;0.10;;;0.10;;
14056;SDS011;7103;54.300;10.180;2022-07-06T09:15:28;0.10;;;0.10;;
14056;SDS011;7103;54.300;10.180;2022-07-06T09:17:56;0.10;;;0.10;;
14056;SDS011;7103;54.300;10.180;2022-07-06T09:20:24;0.20;;;0.20;;
14056;SDS011;7103;54.300;10.180;2022-07-06T09:22:57;0.10;;;0.10;;
14056;SDS011;7103;54.300;10.180;2022-07-06T09:25:25;0.10;;;0.10;;
14056;SDS011;7103;54.300;10.180;2022-07-06T09:27:53;0.10;;;0.10;;
14056;SDS011;7103;54.300;10.180;2022-07-06T09:30:25;0.10;;;0.10;;
14056;SDS011;7103;54.300;10.180;2022-07-06T09:32:56;0.10;;;0.10;;
14056;SDS011;7103;54.300;10.180;2022-07-06T09:35:30;0.10;;;0.10;;
14056;SDS011;7103;54.300;10.180;2022-07-06T09:38:14;0.20;;;0.20;;
14056;SDS011;7103;54.300;10.180;2022-07-06T09:40:42;0.20;;;0.20;;
14056;SDS011;7103;54.300;10.180;2022-07-06T09:45:38;0.10;;;0.10;;
14056;SDS011;7103;54.300;10.180;2022-07-06T09:48:09;0.10;;;0.10;;
14056;SDS011;7103;54.300;10.180;2022-07-06T09:50:41;0.10;;;0.10;;
14056;SDS011;7103;54.300;10.180;2022-07-06T09:53:10;0.20;;;0.20;;
14056;SDS011;7103;54.300;10.180;2022-07-06T09:55:37;0.10;;;0.10;;
14056;SDS011;7103;54.300;10.180;2022-07-06T09:58:05;0.10;;;0.10;;
14056;SDS011;7103;54.300;10.180;2022-07-06T10:00:32;0.10;;;0.10;;
14056;SDS011;7103;54.300;10.180;2022-07-06T10:03:00;0.20;;;0.20;;
14056;SDS011;7103;54.300;10.180;2022-07-06T10:05:28;0.10;;;0.10;;
14056;SDS011;7103;54.300;10.180;2022-07-06T10:07:59;0.10;;;0.10;;
14056;SDS011;7103;54.300;10.180;2022-07-06T10:10:29;0.10;;;0.10;;
14056;SDS011;7103;54.300;10.180;2022-07-06T10:12:57;0.20;;;0.20;;
14056;SDS011;7103;54.300;10.180;2022-07-06T10:15:28;0.10;;;0.10;;
14056;SDS011;7103;54.300;10.180;2022-07-06T10:18:02;0.10;;;0.10;;
14056;SDS011;7103;54.300;10.180;2022-07-06T10:20:33;0.10;;;0.10;;
14056;SDS011;7103;54.300;10.180;2022-07-06T10:23:03;0.20;;;0.20;;
14056;SDS011;7103;54.300;10.180;2022-07-06T10:25:31;0.10;;;0.10;;
14056;SDS011;7103;54.300;10.180;2022-07-06T10:27:58;0.20;;;0.20;;
14056;SDS011;7103;54.300;10.180;2022-07-06T10:30:26;0.10;;;0.10;;
14056;SDS011;7103;54.300;10.180;2022-07-06T10:32:55;0.10;;;0.10;;
14056;SDS011;7103;54.300;10.180;2022-07-06T10:35:23;0.10;;;0.10;;
14056;SDS011;7103;54.300;10.180;2022-07-06T10:38:07;0.20;;;0.20;;
14056;SDS011;7103;54.300;10.180;2022-07-06T10:40:35;0.20;;;0.20;;
14056;SDS011;7103;54.300;10.180;2022-07-06T10:43:21;0.20;;;0.20;;
14056;SDS011;7103;54.300;10.180;2022-07-06T10:48:16;0.10;;;0.10;;
14056;SDS011;7103;54.300;10.180;2022-07-06T10:50:51;0.20;;;0.20;;
14056;SDS011;7103;54.300;10.180;2022-07-06T10:55:51;0.10;;;0.10;;
14056;SDS011;7103;54.300;10.180;2022-07-06T10:58:34;0.10;;;0.10;;
14056;SDS011;7103;54.300;10.180;2022-07-06T11:01:02;0.20;;;0.20;;
14056;SDS011;7103;54.300;10.180;2022-07-06T11:03:33;0.20;;;0.20;;
14056;SDS011;7103;54.300;10.180;2022-07-06T11:06:01;0.10;;;0.10;;
14056;SDS011;7103;54.300;10.180;2022-07-06T11:11:18;0.10;;;0.10;;
14056;SDS011;7103;54.300;10.180;2022-07-06T11:16:20;0.20;;;0.20;;
14056;SDS011;7103;54.300;10.180;2022-07-06T11:18:50;0.20;;;0.20;;
14056;SDS011;7103;54.300;10.180;2022-07-06T11:21:32;0.20;;;0.20;;
14056;SDS011;7103;54.300;10.180;2022-07-06T11:24:00;0.20;;;0.20;;
14056;SDS011;7103;54.300;10.180;2022-07-06T11:26:27;0.20;;;0.20;;
14056;SDS011;7103;54.300;10.180;2022-07-06T11:28:58;0.20;;;0.20;;
14056;SDS011;7103;54.300;10.180;2022-07-06T11:31:27;0.10;;;0.10;;
14056;SDS011;7103;54.300;10.180;2022-07-06T11:33:55;0.20;;;0.20;;
14056;SDS011;7103;54.300;10.180;2022-07-06T11:36:22;0.20;;;0.20;;
14056;SDS011;7103;54.300;10.180;2022-07-06T11:38:50;0.20;;;0.20;;
14056;SDS011;7103;54.300;10.180;2022-07-06T11:41:17;0.20;;;0.20;;
14056;SDS011;7103;54.300;10.180;2022-07-06T11:43:45;0.20;;;0.20;;
14056;SDS011;7103;54.300;10.180;2022-07-06T11:46:20;0.20;;;0.20;;
14056;SDS011;7103;54.300;10.180;2022-07-06T11:48:58;0.20;;;0.20;;
14056;SDS011;7103;54.300;10.180;2022-07-06T11:51:27;0.20;;;0.20;;
14056;SDS011;7103;54.300;10.180;2022-07-06T11:53:56;0.10;;;0.10;;
14056;SDS011;7103;54.300;10.180;2022-07-06T11:56:28;0.20;;;0.20;;
14056;SDS011;7103;54.300;10.180;2022-07-06T11:58:57;0.20;;;0.20;;
14056;SDS011;7103;54.300;10.180;2022-07-06T12:01:25;0.20;;;0.20;;
14056;SDS011;7103;54.300;10.180;2022-07-06T12:04:00;0.10;;;0.10;;
14056;SDS011;7103;54.300;10.180;2022-07-06T12:06:31;0.20;;;0.20;;
14056;SDS011;7103;54.300;10.180;2022-07-06T12:08:58;0.20;;;0.20;;
14056;SDS011;7103;54.300;10.180;2022-07-06T12:11:28;0.10;;;0.10;;
14056;SDS011;7103;54.300;10.180;2022-07-06T12:14:00;0.20;;;0.20;;
14056;SDS011;7103;54.300;10.180;2022-07-06T12:16:34;0.20;;;0.20;;
14056;SDS011;7103;54.300;10.180;2022-07-06T12:19:03;0.13;;;0.13;;
14056;SDS011;7103;54.300;10.180;2022-07-06T12:21:33;0.20;;;0.20;;
14056;SDS011;7103;54.300;10.180;2022-07-06T12:24:00;0.10;;;0.10;;
14056;SDS011;7103;54.300;10.180;2022-07-06T12:26:28;0.20;;;0.20;;
14056;SDS011;7103;54.300;10.180;2022-07-06T12:29:06;0.20;;;0.20;;
14056;SDS011;7103;54.300;10.180;2022-07-06T12:31:37;0.20;;;0.20;;
14056;SDS011;7103;54.300;10.180;2022-07-06T12:34:11;0.20;;;0.20;;
14056;SDS011;7103;54.300;10.180;2022-07-06T12:36:43;0.20;;;0.20;;
14056;SDS011;7103;54.300;10.180;2022-07-06T12:39:12;0.20;;;0.20;;
14056;SDS011;7103;54.300;10.180;2022-07-06T12:41:53;0.23;;;0.23;;
14056;SDS011;7103;54.300;10.180;2022-07-06T12:44:24;0.20;;;0.20;;
14056;SDS011;7103;54.300;10.180;2022-07-06T12:47:02;0.20;;;0.20;;
14056;SDS011;7103;54.300;10.180;2022-07-06T12:49:31;0.20;;;0.20;;
14056;SDS011;7103;54.300;10.180;2022-07-06T12:52:12;0.20;;;0.20;;
14056;SDS011;7103;54.300;10.180;2022-07-06T12:54:47;0.20;;;0.20;;
14056;SDS011;7103;54.300;10.180;2022-07-06T12:57:16;0.20;;;0.20;;
14056;SDS011;7103;54.300;10.180;2022-07-06T12:59:54;0.20;;;0.20;;
14056;SDS011;7103;54.300;10.180;2022-07-06T13:02:24;0.20;;;0.20;;
14056;SDS011;7103;54.300;10.180;2022-07-06T13:05:13;0.20;;;0.20;;
14056;SDS011;7103;54.300;10.180;2022-07-06T13:07:45;0.20;;;0.20;;
14056;SDS011;7103;54.300;10.180;2022-07-06T13:10:14;0.20;;;0.20;;
14056;SDS011;7103;54.300;10.180;2022-07-06T13:12:42;0.30;;;0.30;;
14056;SDS011;7103;54.300;10.180;2022-07-06T13:15:09;0.20;;;0.20;;
14056;SDS011;7103;54.300;10.180;2022-07-06T13:17:37;0.20;;;0.20;;
14056;SDS011;7103;54.300;10.180;2022-07-06T13:20:05;0.20;;;0.20;;
14056;SDS011;7103;54.300;10.180;2022-07-06T13:22:34;0.20;;;0.20;;
14056;SDS011;7103;54.300;10.180;2022-07-06T13:25:02;0.20;;;0.20;;
14056;SDS011;7103;54.300;10.180;2022-07-06T13:27:29;0.20;;;0.20;;
14056;SDS011;7103;54.300;10.180;2022-07-06T13:29:56;0.20;;;0.20;;
14056;SDS011;7103;54.300;10.180;2022-07-06T13:32:24;0.20;;;0.20;;
14056;SDS011;7103;54.300;10.180;2022-07-06T13:34:51;0.20;;;0.20;;
14056;SDS011;7103;54.300;10.180;2022-07-06T13:37:19;0.20;;;0.20;;
14056;SDS011;7103;54.300;10.180;2022-07-06T13:39:48;0.20;;;0.20;;
14056;SDS011;7103;54.300;10.180;2022-07-06T13:42:15;0.20;;;0.20;;
14056;SDS011;7103;54.300;10.180;2022-07-06T13:44:42;0.20;;;0.20;;
14056;SDS011;7103;54.300;10.180;2022-07-06T13:47:09;0.20;;;0.20;;
14056;SDS011;7103;54.300;10.180;2022-07-06T13:49:38;0.20;;;0.20;;
14056;SDS011;7103;54.300;10.180;2022-07-06T13:52:06;0.20;;;0.20;;
14056;SDS011;7103;54.300;10.180;2022-07-06T13:54:33;0.20;;;0.20;;
14056;SDS011;7103;54.300;10.180;2022-07-06T13:57:01;0.20;;;0.20;;
14056;SDS011;7103;54.300;10.180;2022-07-06T13:59:29;0.20;;;0.20;;
14056;SDS011;7103;54.300;10.180;2022-07-06T14:01:56;0.20;;;0.20;;
14056;SDS011;7103;54.300;10.180;2022-07-06T14:04:24;0.20;;;0.20;;
14056;SDS011;7103;54.300;10.180;2022-07-06T14:06:51;0.20;;;0.20;;
14056;SDS011;7103;54.300;10.180;2022-07-06T14:09:18;0.20;;;0.20;;
14056;SDS011;7103;54.300;10.180;2022-07-06T14:11:45;0.20;;;0.20;;
14056;SDS011;7103;54.300;10.180;2022-07-06T14:14:12;0.20;;;0.20;;
14056;SDS011;7103;54.300;10.180;2022-07-06T14:16:39;0.20;;;0.20;;
14056;SDS011;7103;54.300;10.180;2022-07-06T14:19:07;0.30;;;0.30;;
14056;SDS011;7103;54.300;10.180;2022-07-06T14:21:34;0.20;;;0.20;;
14056;SDS011;7103;54.300;10.180;2022-07-06T14:24:04;0.20;;;0.20;;
14056;SDS011;7103;54.300;10.180;2022-07-06T14:26:31;0.20;;;0.20;;
14056;SDS011;7103;54.300;10.180;2022-07-06T14:28:59;0.20;;;0.20;;
14056;SDS011;7103;54.300;10.180;2022-07-06T14:31:28;0.20;;;0.20;;
14056;SDS011;7103;54.300;10.180;2022-07-06T14:33:55;0.20;;;0.20;;
14056;SDS011;7103;54.300;10.180;2022-07-06T14:36:22;0.20;;;0.20;;
14056;SDS011;7103;54.300;10.180;2022-07-06T14:38:49;0.20;;;0.20;;
14056;SDS011;7103;54.300;10.180;2022-07-06T14:42:07;0.20;;;0.20;;
14056;SDS011;7103;54.300;10.180;2022-07-06T14:44:34;0.20;;;0.20;;
14056;SDS011;7103;54.300;10.180;2022-07-06T14:47:00;0.20;;;0.20;;
14056;SDS011;7103;54.300;10.180;2022-07-06T14:49:27;0.20;;;0.20;;
14056;SDS011;7103;54.300;10.180;2022-07-06T14:51:54;0.20;;;0.20;;
14056;SDS011;7103;54.300;10.180;2022-07-06T14:54:23;0.20;;;0.20;;
14056;SDS011;7103;54.300;10.180;2022-07-06T14:56:50;0.20;;;0.20;;
14056;SDS011;7103;54.300;10.180;2022-07-06T14:59:17;0.20;;;0.20;;
14056;SDS011;7103;54.300;10.180;2022-07-06T15:01:50;0.20;;;0.20;;
14056;SDS011;7103;54.300;10.180;2022-07-06T15:04:17;0.20;;;0.20;;
14056;SDS011;7103;54.300;10.180;2022-07-06T15:06:44;0.30;;;0.30;;
14056;SDS011;7103;54.300;10.180;2022-07-06T15:09:21;0.20;;;0.20;;
14056;SDS011;7103;54.300;10.180;2022-07-06T15:11:48;0.20;;;0.20;;